sensor_id;sensor_type;location;lat;lon;timestamp;temperature;humidity
43099;DHT22;28715;51.988;6.020;2022-10-16T00:26:54;14.30;99.90
43099;DHT22;28715;51.988;6.020;2022-10-16T00:33:19;14.30;99.90
43099;DHT22;28715;51.988;6.020;2022-10-16T00:39:13;14.30;99.90
43099;DHT22;28715;51.988;6.020;2022-10-16T00:45:13;14.30;99.90
43099;DHT22;28715;51.988;6.020;2022-10-16T00:47:54;14.30;99.90
43099;DHT22;28715;51.988;6.020;2022-10-16T00:50:53;14.30;99.90
43099;DHT22;28715;51.988;6.020;2022-10-16T01:14:59;14.30;99.90
43099;DHT22;28715;51.988;6.020;2022-10-16T01:48:23;14.20;99.90
43099;DHT22;28715;51.988;6.020;2022-10-16T02:09:15;14.20;99.90
43099;DHT22;28715;51.988;6.020;2022-10-16T03:55:30;14.30;99.90
43099;DHT22;28715;51.988;6.020;2022-10-16T04:55:16;14.30;99.90
43099;DHT22;28715;51.988;6.020;2022-10-16T07:20:50;14.50;99.90
43099;DHT22;28715;51.988;6.020;2022-10-16T07:55:22;15.40;99.90
43099;DHT22;28715;51.988;6.020;2022-10-16T07:58:15;15.60;99.90
43099;DHT22;28715;51.988;6.020;2022-10-16T08:01:23;15.90;99.90
43099;DHT22;28715;51.988;6.020;2022-10-16T08:08:23;16.90;99.70
43099;DHT22;28715;51.988;6.020;2022-10-16T08:14:01;17.40;98.10
43099;DHT22;28715;51.988;6.020;2022-10-16T08:16:39;17.60;97.90
43099;DHT22;28715;51.988;6.020;2022-10-16T08:33:57;19.10;95.30
43099;DHT22;28715;51.988;6.020;2022-10-16T08:40:00;19.40;94.40
43099;DHT22;28715;51.988;6.020;2022-10-16T09:28:37;21.00;91.50
43099;DHT22;28715;51.988;6.020;2022-10-16T09:59:57;22.00;88.70
43099;DHT22;28715;51.988;6.020;2022-10-16T10:05:57;22.10;88.60
43099;DHT22;28715;51.988;6.020;2022-10-16T10:12:16;22.20;88.50
43099;DHT22;28715;51.988;6.020;2022-10-16T10:16:09;22.50;87.80
43099;DHT22;28715;51.988;6.020;2022-10-16T10:18:39;22.60;87.70
43099;DHT22;28715;51.988;6.020;2022-10-16T10:21:36;22.70;86.20
43099;DHT22;28715;51.988;6.020;2022-10-16T10:24:24;22.60;86.20
43099;DHT22;28715;51.988;6.020;2022-10-16T10:40:22;22.20;87.20
43099;DHT22;28715;51.988;6.020;2022-10-16T10:49:55;22.20;86.50
43099;DHT22;28715;51.988;6.020;2022-10-16T11:06:51;22.20;82.30
43099;DHT22;28715;51.988;6.020;2022-10-16T11:12:24;22.00;83.00
43099;DHT22;28715;51.988;6.020;2022-10-16T11:15:21;21.90;83.50
43099;DHT22;28715;51.988;6.020;2022-10-16T11:21:12;22.00;83.30
43099;DHT22;28715;51.988;6.020;2022-10-16T11:27:08;22.30;81.80
43099;DHT22;28715;51.988;6.020;2022-10-16T11:30:19;22.30;81.70
43099;DHT22;28715;51.988;6.020;2022-10-16T11:33:25;22.40;81.30
43099;DHT22;28715;51.988;6.020;2022-10-16T11:39:28;22.10;81.20
43099;DHT22;28715;51.988;6.020;2022-10-16T11:42:37;22.00;81.00
43099;DHT22;28715;51.988;6.020;2022-10-16T11:51:14;21.70;82.00
43099;DHT22;28715;51.988;6.020;2022-10-16T11:54:04;21.70;82.70
43099;DHT22;28715;51.988;6.020;2022-10-16T11:56:37;21.70;82.10
43099;DHT22;28715;51.988;6.020;2022-10-16T11:59:18;21.70;82.30
43099;DHT22;28715;51.988;6.020;2022-10-16T12:02:07;21.80;82.40
43099;DHT22;28715;51.988;6.020;2022-10-16T12:04:49;21.90;82.30
43099;DHT22;28715;51.988;6.020;2022-10-16T12:07:26;22.00;81.20
43099;DHT22;28715;51.988;6.020;2022-10-16T12:09:55;22.00;80.10
43099;DHT22;28715;51.988;6.020;2022-10-16T12:15:23;21.90;80.00
43099;DHT22;28715;51.988;6.020;2022-10-16T12:17:49;21.70;80.50
43099;DHT22;28715;51.988;6.020;2022-10-16T12:20:32;21.60;82.20
43099;DHT22;28715;51.988;6.020;2022-10-16T12:23:22;21.60;82.10
43099;DHT22;28715;51.988;6.020;2022-10-16T12:26:02;21.60;82.80
43099;DHT22;28715;51.988;6.020;2022-10-16T12:28:30;21.70;83.20
43099;DHT22;28715;51.988;6.020;2022-10-16T12:31:36;21.80;83.00
43099;DHT22;28715;51.988;6.020;2022-10-16T12:37:20;21.90;82.10
43099;DHT22;28715;51.988;6.020;2022-10-16T12:39:49;21.90;81.90
43099;DHT22;28715;51.988;6.020;2022-10-16T12:44:55;21.70;80.50
43099;DHT22;28715;51.988;6.020;2022-10-16T12:47:51;21.70;80.60
43099;DHT22;28715;51.988;6.020;2022-10-16T12:50:34;21.70;81.10
43099;DHT22;28715;51.988;6.020;2022-10-16T12:53:17;21.70;81.30
43099;DHT22;28715;51.988;6.020;2022-10-16T12:56:20;21.70;81.60
43099;DHT22;28715;51.988;6.020;2022-10-16T12:59:14;21.70;82.10
43099;DHT22;28715;51.988;6.020;2022-10-16T13:17:20;21.60;80.60
43099;DHT22;28715;51.988;6.020;2022-10-16T13:23:46;21.70;81.60
43099;DHT22;28715;51.988;6.020;2022-10-16T13:37:31;21.40;83.70
43099;DHT22;28715;51.988;6.020;2022-10-16T13:50:19;21.80;79.20
43099;DHT22;28715;51.988;6.020;2022-10-16T13:53:15;21.80;79.10
43099;DHT22;28715;51.988;6.020;2022-10-16T13:59:33;21.60;79.90
43099;DHT22;28715;51.988;6.020;2022-10-16T14:02:55;21.70;79.90
43099;DHT22;28715;51.988;6.020;2022-10-16T14:12:25;21.80;80.30
43099;DHT22;28715;51.988;6.020;2022-10-16T14:15:34;21.80;80.70
43099;DHT22;28715;51.988;6.020;2022-10-16T14:22:38;21.70;81.00
43099;DHT22;28715;51.988;6.020;2022-10-16T14:29:28;21.70;81.00
43099;DHT22;28715;51.988;6.020;2022-10-16T17:37:35;17.30;96.50
43099;DHT22;28715;51.988;6.020;2022-10-16T18:24:06;17.00;97.00
43099;DHT22;28715;51.988;6.020;2022-10-16T18:27:01;17.00;97.00
43099;DHT22;28715;51.988;6.020;2022-10-16T18:29:58;17.00;97.00
43099;DHT22;28715;51.988;6.020;2022-10-16T18:32:25;16.90;97.00
43099;DHT22;28715;51.988;6.020;2022-10-16T18:34:55;16.90;97.10
43099;DHT22;28715;51.988;6.020;2022-10-16T18:37:25;16.90;97.20
43099;DHT22;28715;51.988;6.020;2022-10-16T18:39:51;16.90;97.30
43099;DHT22;28715;51.988;6.020;2022-10-16T18:42:19;16.90;97.30
43099;DHT22;28715;51.988;6.020;2022-10-16T18:44:44;16.80;97.30
43099;DHT22;28715;51.988;6.020;2022-10-16T18:47:10;16.80;97.30
43099;DHT22;28715;51.988;6.020;2022-10-16T18:49:35;16.80;97.30
43099;DHT22;28715;51.988;6.020;2022-10-16T18:52:01;16.80;97.30
43099;DHT22;28715;51.988;6.020;2022-10-16T18:54:27;16.80;97.50
43099;DHT22;28715;51.988;6.020;2022-10-16T18:56:54;16.80;97.60
43099;DHT22;28715;51.988;6.020;2022-10-16T18:59:27;16.80;97.60
43099;DHT22;28715;51.988;6.020;2022-10-16T19:02:00;16.80;97.70
43099;DHT22;28715;51.988;6.020;2022-10-16T19:04:29;16.90;97.70
43099;DHT22;28715;51.988;6.020;2022-10-16T19:07:05;16.90;97.70
43099;DHT22;28715;51.988;6.020;2022-10-16T19:09:34;17.00;97.80
43099;DHT22;28715;51.988;6.020;2022-10-16T19:12:02;17.00;97.80
43099;DHT22;28715;51.988;6.020;2022-10-16T19:14:28;17.00;97.80
43099;DHT22;28715;51.988;6.020;2022-10-16T19:16:54;17.00;97.80
43099;DHT22;28715;51.988;6.020;2022-10-16T19:19:22;17.00;97.90
43099;DHT22;28715;51.988;6.020;2022-10-16T19:21:48;17.00;98.00
43099;DHT22;28715;51.988;6.020;2022-10-16T19:24:20;17.00;98.10
43099;DHT22;28715;51.988;6.020;2022-10-16T19:26:46;17.00;98.10
43099;DHT22;28715;51.988;6.020;2022-10-16T19:29:12;17.00;98.10
43099;DHT22;28715;51.988;6.020;2022-10-16T19:31:38;17.00;98.20
43099;DHT22;28715;51.988;6.020;2022-10-16T19:34:05;16.90;98.20
43099;DHT22;28715;51.988;6.020;2022-10-16T19:36:34;16.90;98.30
43099;DHT22;28715;51.988;6.020;2022-10-16T19:39:11;16.90;98.10
43099;DHT22;28715;51.988;6.020;2022-10-16T19:41:43;16.90;98.30
43099;DHT22;28715;51.988;6.020;2022-10-16T19:44:11;16.80;98.30
43099;DHT22;28715;51.988;6.020;2022-10-16T19:46:37;16.70;98.50
43099;DHT22;28715;51.988;6.020;2022-10-16T19:49:07;16.70;98.70
43099;DHT22;28715;51.988;6.020;2022-10-16T19:51:50;16.60;98.80
43099;DHT22;28715;51.988;6.020;2022-10-16T19:54:18;16.60;99.40
43099;DHT22;28715;51.988;6.020;2022-10-16T19:56:46;16.60;99.20
43099;DHT22;28715;51.988;6.020;2022-10-16T19:59:15;16.60;99.40
43099;DHT22;28715;51.988;6.020;2022-10-16T20:01:50;16.60;99.40
43099;DHT22;28715;51.988;6.020;2022-10-16T20:04:18;16.60;99.50
43099;DHT22;28715;51.988;6.020;2022-10-16T20:06:46;16.60;99.40
43099;DHT22;28715;51.988;6.020;2022-10-16T20:09:14;16.70;99.40
43099;DHT22;28715;51.988;6.020;2022-10-16T20:11:42;16.70;99.40
43099;DHT22;28715;51.988;6.020;2022-10-16T20:14:34;16.70;99.40
43099;DHT22;28715;51.988;6.020;2022-10-16T20:17:02;16.70;99.50
43099;DHT22;28715;51.988;6.020;2022-10-16T20:19:31;16.70;99.40
43099;DHT22;28715;51.988;6.020;2022-10-16T20:21:56;16.70;99.50
43099;DHT22;28715;51.988;6.020;2022-10-16T20:31:08;16.70;99.60
43099;DHT22;28715;51.988;6.020;2022-10-16T21:08:34;16.40;99.90
43099;DHT22;28715;51.988;6.020;2022-10-16T21:10:59;16.50;99.90
43099;DHT22;28715;51.988;6.020;2022-10-16T21:13:28;16.40;99.90
43099;DHT22;28715;51.988;6.020;2022-10-16T21:16:02;16.40;99.90
43099;DHT22;28715;51.988;6.020;2022-10-16T21:18:30;16.40;99.90
43099;DHT22;28715;51.988;6.020;2022-10-16T21:21:37;16.40;99.90
43099;DHT22;28715;51.988;6.020;2022-10-16T21:27:05;16.40;99.90
43099;DHT22;28715;51.988;6.020;2022-10-16T21:29:39;16.40;99.90
43099;DHT22;28715;51.988;6.020;2022-10-16T21:32:08;16.40;99.90
43099;DHT22;28715;51.988;6.020;2022-10-16T21:34:34;16.40;99.90
43099;DHT22;28715;51.988;6.020;2022-10-16T21:37:05;16.40;99.90
43099;DHT22;28715;51.988;6.020;2022-10-16T21:39:30;16.40;99.90
43099;DHT22;28715;51.988;6.020;2022-10-16T21:41:56;16.40;99.90
43099;DHT22;28715;51.988;6.020;2022-10-16T21:44:22;16.40;99.90
43099;DHT22;28715;51.988;6.020;2022-10-16T21:46:49;16.40;99.90
43099;DHT22;28715;51.988;6.020;2022-10-16T21:49:17;16.40;99.90
43099;DHT22;28715;51.988;6.020;2022-10-16T21:51:46;16.40;99.90
43099;DHT22;28715;51.988;6.020;2022-10-16T21:54:15;16.40;99.90
43099;DHT22;28715;51.988;6.020;2022-10-16T21:56:41;16.50;99.90
43099;DHT22;28715;51.988;6.020;2022-10-16T21:59:07;16.50;99.90
43099;DHT22;28715;51.988;6.020;2022-10-16T22:01:32;16.50;99.90
43099;DHT22;28715;51.988;6.020;2022-10-16T22:03:58;16.50;99.90
43099;DHT22;28715;51.988;6.020;2022-10-16T22:06:25;16.50;99.90
43099;DHT22;28715;51.988;6.020;2022-10-16T22:08:53;16.50;99.90
43099;DHT22;28715;51.988;6.020;2022-10-16T22:11:22;16.40;99.90
43099;DHT22;28715;51.988;6.020;2022-10-16T22:13:49;16.40;99.90
43099;DHT22;28715;51.988;6.020;2022-10-16T22:16:19;16.40;99.90
43099;DHT22;28715;51.988;6.020;2022-10-16T22:18:45;16.40;99.90
43099;DHT22;28715;51.988;6.020;2022-10-16T22:21:11;16.40;99.90
43099;DHT22;28715;51.988;6.020;2022-10-16T22:23:36;16.30;99.90
43099;DHT22;28715;51.988;6.020;2022-10-16T22:26:05;16.30;99.90
43099;DHT22;28715;51.988;6.020;2022-10-16T22:28:31;16.30;99.90
43099;DHT22;28715;51.988;6.020;2022-10-16T22:31:00;16.30;99.90
43099;DHT22;28715;51.988;6.020;2022-10-16T22:33:27;16.20;99.90
43099;DHT22;28715;51.988;6.020;2022-10-16T22:35:53;16.30;99.90
43099;DHT22;28715;51.988;6.020;2022-10-16T22:38:18;16.20;99.90
43099;DHT22;28715;51.988;6.020;2022-10-16T22:40:44;16.10;99.90
43099;DHT22;28715;51.988;6.020;2022-10-16T22:43:09;16.10;99.90
43099;DHT22;28715;51.988;6.020;2022-10-16T22:45:35;16.10;99.90
43099;DHT22;28715;51.988;6.020;2022-10-16T22:48:02;16.00;99.90
43099;DHT22;28715;51.988;6.020;2022-10-16T22:50:28;16.00;99.90
43099;DHT22;28715;51.988;6.020;2022-10-16T22:52:54;16.00;99.90
43099;DHT22;28715;51.988;6.020;2022-10-16T22:55:20;15.90;99.90
43099;DHT22;28715;51.988;6.020;2022-10-16T22:57:46;15.90;99.90
43099;DHT22;28715;51.988;6.020;2022-10-16T23:00:15;15.90;99.90
43099;DHT22;28715;51.988;6.020;2022-10-16T23:02:44;15.90;99.90
43099;DHT22;28715;51.988;6.020;2022-10-16T23:05:10;15.80;99.90
43099;DHT22;28715;51.988;6.020;2022-10-16T23:07:36;15.80;99.90
43099;DHT22;28715;51.988;6.020;2022-10-16T23:10:03;15.70;99.90
43099;DHT22;28715;51.988;6.020;2022-10-16T23:12:29;15.70;99.90
43099;DHT22;28715;51.988;6.020;2022-10-16T23:14:55;15.70;99.90
43099;DHT22;28715;51.988;6.020;2022-10-16T23:17:20;15.70;99.90
43099;DHT22;28715;51.988;6.020;2022-10-16T23:19:46;15.70;99.90
43099;DHT22;28715;51.988;6.020;2022-10-16T23:22:12;15.80;99.90
43099;DHT22;28715;51.988;6.020;2022-10-16T23:24:38;15.80;99.90
43099;DHT22;28715;51.988;6.020;2022-10-16T23:27:04;15.80;99.90
43099;DHT22;28715;51.988;6.020;2022-10-16T23:29:30;15.80;99.90
43099;DHT22;28715;51.988;6.020;2022-10-16T23:31:56;15.80;99.90
43099;DHT22;28715;51.988;6.020;2022-10-16T23:34:22;15.80;99.90
43099;DHT22;28715;51.988;6.020;2022-10-16T23:36:48;15.80;99.90
43099;DHT22;28715;51.988;6.020;2022-10-16T23:39:14;15.80;99.90
43099;DHT22;28715;51.988;6.020;2022-10-16T23:41:39;15.70;99.90
43099;DHT22;28715;51.988;6.020;2022-10-16T23:44:08;15.70;99.90
43099;DHT22;28715;51.988;6.020;2022-10-16T23:46:33;15.70;99.90
43099;DHT22;28715;51.988;6.020;2022-10-16T23:48:59;15.60;99.90
43099;DHT22;28715;51.988;6.020;2022-10-16T23:51:24;15.60;99.90
43099;DHT22;28715;51.988;6.020;2022-10-16T23:53:50;15.60;99.90
43099;DHT22;28715;51.988;6.020;2022-10-16T23:56:17;15.50;99.90
43099;DHT22;28715;51.988;6.020;2022-10-16T23:58:45;15.50;99.90
